Time;durP1;ratioP1;P1;durP2;ratioP2;P2;SDS_P1;SDS_P2;PMS_P1;PMS_P2;Temp;Humidity;BMP_temperature;BMP_pressure;BME280_temperature;BME280_humidity;BME280_pressure;Samples;Min_cycle;Max_cycle;Signal;HPM_P1;HPM_P2
2022/12/20 00:01:15;;;;;;;5.03;3.15;;;8.00;99.90;;;;;;5004790;28;20022;-67
2022/12/20 00:03:43;;;;;;;8.40;2.88;;;8.00;99.90;;;;;;4978188;28;20018;-67
2022/12/20 00:06:10;;;;;;;4.35;2.65;;;8.00;99.90;;;;;;5003412;28;20033;-66
2022/12/20 00:08:36;;;;;;;6.25;2.50;;;8.10;99.90;;;;;;5006698;28;20026;-67
2022/12/20 00:11:04;;;;;;;5.78;2.20;;;8.10;99.90;;;;;;4995967;28;20030;-67
2022/12/20 00:13:29;;;;;;;8.38;3.00;;;8.10;99.90;;;;;;5000152;28;20027;-65
2022/12/20 00:16:20;;;;;;;4.43;2.85;;;8.10;99.90;;;;;;5000950;28;20030;-66
2022/12/20 00:18:46;;;;;;;6.55;4.00;;;8.10;99.90;;;;;;4998723;28;20022;-65
2022/12/20 00:21:13;;;;;;;7.40;3.08;;;8.20;99.90;;;;;;4997196;28;20141;-66
2022/12/20 00:23:39;;;;;;;8.73;3.15;;;8.20;99.90;;;;;;5000415;28;20030;-68
2022/12/20 00:26:08;;;;;;;6.10;2.47;;;8.20;99.90;;;;;;4993820;28;20033;-65
2022/12/20 00:28:34;;;;;;;8.25;2.45;;;8.20;99.90;;;;;;4995580;28;20014;-67
2022/12/20 00:31:01;;;;;;;5.43;2.60;;;8.30;99.90;;;;;;4992081;28;20034;-66
2022/12/20 00:33:26;;;;;;;3.88;2.58;;;8.30;99.90;;;;;;4998198;28;20636;-66
2022/12/20 00:35:55;;;;;;;6.68;2.40;;;8.30;99.90;;;;;;4995840;28;20145;-63
2022/12/20 00:38:22;;;;;;;5.97;2.47;;;8.20;99.90;;;;;;4998882;28;20018;-66
2022/12/20 00:40:47;;;;;;;3.47;2.10;;;8.20;99.90;;;;;;4999345;28;20126;-68
2022/12/20 00:43:13;;;;;;;5.50;2.85;;;8.20;99.90;;;;;;5003184;28;20117;-66
2022/12/20 00:45:38;;;;;;;7.10;2.75;;;8.30;99.90;;;;;;5004741;28;20030;-66
2022/12/20 00:48:04;;;;;;;6.97;3.22;;;8.30;99.90;;;;;;5011842;28;20045;-67
2022/12/20 00:50:30;;;;;;;5.65;2.88;;;8.30;99.90;;;;;;5018528;28;20029;-66
2022/12/20 00:52:55;;;;;;;5.57;2.55;;;8.20;99.90;;;;;;5009535;28;20053;-67
2022/12/20 00:55:21;;;;;;;5.88;3.35;;;8.30;99.90;;;;;;5006357;28;20550;-66
2022/12/20 00:57:47;;;;;;;5.25;3.25;;;8.40;99.90;;;;;;5010138;28;20040;-66
2022/12/20 01:00:12;;;;;;;6.18;2.90;;;8.40;99.90;;;;;;5011082;28;20080;-67
2022/12/20 01:02:38;;;;;;;8.38;3.70;;;8.30;99.90;;;;;;5007182;28;20033;-68
2022/12/20 01:05:05;;;;;;;6.82;3.70;;;8.40;99.90;;;;;;4992153;28;20092;-64
2022/12/20 01:07:31;;;;;;;7.85;3.67;;;8.20;99.90;;;;;;5010388;28;20035;-66
2022/12/20 01:09:57;;;;;;;6.75;4.30;;;8.20;99.90;;;;;;5015412;28;20021;-66
2022/12/20 01:12:23;;;;;;;6.53;4.40;;;8.20;99.90;;;;;;5016099;28;20502;-67
2022/12/20 01:14:48;;;;;;;10.68;3.97;;;8.10;99.90;;;;;;5016312;28;20026;-66
2022/12/20 01:17:14;;;;;;;10.40;3.90;;;8.00;99.90;;;;;;5016215;28;20026;-68
2022/12/20 01:19:39;;;;;;;7.75;4.32;;;8.00;99.90;;;;;;5008740;28;20392;-66
2022/12/20 01:22:05;;;;;;;11.23;4.55;;;8.00;99.90;;;;;;5012168;28;20050;-67
2022/12/20 01:24:31;;;;;;;8.70;4.63;;;8.00;99.90;;;;;;5010333;28;20026;-67
2022/12/20 01:26:56;;;;;;;10.27;4.90;;;8.00;99.90;;;;;;5012210;28;20391;-67
2022/12/20 01:29:22;;;;;;;11.82;4.10;;;8.00;99.90;;;;;;5010958;28;20041;-66
2022/12/20 01:31:47;;;;;;;8.50;4.40;;;8.00;99.90;;;;;;5012218;28;20063;-67
2022/12/20 01:34:13;;;;;;;8.57;4.63;;;7.90;99.90;;;;;;5007744;28;20041;-67
2022/12/20 01:36:38;;;;;;;7.90;4.43;;;7.90;99.90;;;;;;5007156;28;20033;-67
2022/12/20 01:39:14;;;;;;;9.57;4.70;;;7.80;99.90;;;;;;5009041;28;20103;-66
2022/12/20 01:41:40;;;;;;;11.13;4.60;;;7.80;99.90;;;;;;5009087;28;20030;-66
2022/12/20 01:44:26;;;;;;;10.15;4.18;;;7.80;99.90;;;;;;5011496;28;20659;-67
2022/12/20 01:46:53;;;;;;;8.85;4.35;;;7.80;99.90;;;;;;4998094;28;20788;-67
2022/12/20 01:49:29;;;;;;;9.50;4.60;;;7.70;99.90;;;;;;5004520;28;20038;-67
2022/12/20 01:52:01;;;;;;;9.57;5.25;;;7.70;99.90;;;;;;5007008;28;20107;-68
2022/12/20 01:54:28;;;;;;;8.68;4.57;;;7.60;99.90;;;;;;5011480;28;20037;-66
2022/12/20 01:56:59;;;;;;;10.68;4.13;;;7.60;99.90;;;;;;5011721;28;20502;-67
2022/12/20 01:59:26;;;;;;;6.28;4.20;;;7.70;99.90;;;;;;5011057;28;20033;-67
2022/12/20 02:01:51;;;;;;;7.95;3.72;;;7.70;99.90;;;;;;5010365;28;20080;-68
2022/12/20 02:04:17;;;;;;;9.13;4.20;;;7.70;99.90;;;;;;4993253;28;20050;-66
2022/12/20 02:06:42;;;;;;;5.68;3.95;;;7.70;99.90;;;;;;5015348;28;20030;-68
2022/12/20 02:09:08;;;;;;;6.38;4.38;;;7.70;99.90;;;;;;5007610;28;20048;-66
2022/12/20 02:11:40;;;;;;;6.57;3.53;;;7.70;99.90;;;;;;5004696;28;20034;-67
2022/12/20 02:14:17;;;;;;;8.75;4.05;;;7.70;99.90;;;;;;5006776;28;20041;-67
2022/12/20 02:17:03;;;;;;;9.32;4.55;;;7.70;99.90;;;;;;5008142;28;20029;-66
2022/12/20 02:20:01;;;;;;;5.38;3.80;;;7.70;99.90;;;;;;4987009;28;20035;-66
2022/12/20 02:22:34;;;;;;;8.82;4.00;;;7.70;99.90;;;;;;5001347;28;20037;-68
2022/12/20 02:25:30;;;;;;;7.65;4.05;;;7.70;99.90;;;;;;5007304;28;20084;-68
2022/12/20 02:28:21;;;;;;;6.05;3.55;;;7.70;99.90;;;;;;5005309;28;20109;-66
2022/12/20 02:30:49;;;;;;;16.65;4.50;;;7.70;99.90;;;;;;5002970;28;20033;-66
2022/12/20 02:33:16;;;;;;;6.45;3.65;;;7.70;99.90;;;;;;5001623;28;20057;-67
2022/12/20 02:35:42;;;;;;;9.55;3.92;;;7.70;99.90;;;;;;4995744;28;20022;-66
2022/12/20 02:38:31;;;;;;;8.60;4.22;;;7.70;99.90;;;;;;4999125;28;20084;-66
2022/12/20 02:41:38;;;;;;;7.85;3.67;;;7.70;99.90;;;;;;5003871;28;20266;-66
2022/12/20 02:46:57;;;;;;;11.15;4.30;;;7.80;99.90;;;;;;5011590;28;20033;-67
2022/12/20 02:49:27;;;;;;;6.30;4.00;;;7.80;99.90;;;;;;5009020;28;20034;-66
2022/12/20 02:51:55;;;;;;;7.32;4.32;;;7.90;99.90;;;;;;5010990;28;20045;-66
2022/12/20 02:54:21;;;;;;;7.68;3.55;;;8.00;99.90;;;;;;5007087;28;20026;-67
2022/12/20 02:56:58;;;;;;;8.07;3.33;;;7.90;99.90;;;;;;5011479;28;20412;-66
2022/12/20 02:59:30;;;;;;;10.10;3.58;;;7.90;99.90;;;;;;5006399;28;20050;-67
2022/12/20 03:01:56;;;;;;;7.70;3.53;;;7.90;99.90;;;;;;5010273;28;20036;-65
2022/12/20 03:04:26;;;;;;;7.88;3.67;;;7.90;99.90;;;;;;4992804;28;20037;-66
2022/12/20 03:06:59;;;;;;;9.93;3.50;;;8.00;99.90;;;;;;5019765;28;20136;-66
2022/12/20 03:09:25;;;;;;;6.70;3.50;;;7.90;99.90;;;;;;5009908;28;20084;-68
2022/12/20 03:11:52;;;;;;;10.18;4.15;;;7.90;99.90;;;;;;5015413;28;20029;-67
2022/12/20 03:14:18;;;;;;;5.93;3.58;;;7.90;99.90;;;;;;5013442;28;20714;-68
2022/12/20 03:16:43;;;;;;;5.05;3.20;;;7.90;99.90;;;;;;5016430;28;20038;-68
2022/12/20 03:19:09;;;;;;;7.75;3.42;;;7.80;99.90;;;;;;5010118;28;20089;-67
2022/12/20 03:21:34;;;;;;;9.07;3.70;;;7.80;99.90;;;;;;5017696;28;20030;-66
2022/12/20 03:24:00;;;;;;;6.35;3.35;;;7.80;99.90;;;;;;5010468;28;20496;-67
2022/12/20 03:26:25;;;;;;;5.22;3.17;;;7.80;99.90;;;;;;5019234;28;20034;-66
2022/12/20 03:28:51;;;;;;;7.50;3.90;;;7.80;99.90;;;;;;5009814;28;20034;-65
2022/12/20 03:31:17;;;;;;;7.38;3.90;;;7.80;99.90;;;;;;5015562;28;20456;-67
2022/12/20 03:33:42;;;;;;;6.22;3.75;;;7.80;99.90;;;;;;5010677;28;20030;-66
2022/12/20 03:36:08;;;;;;;5.80;3.83;;;7.80;99.90;;;;;;5016668;28;20025;-66
2022/12/20 03:38:33;;;;;;;5.65;3.22;;;7.80;99.90;;;;;;4997288;28;20022;-66
2022/12/20 03:40:59;;;;;;;7.85;3.58;;;7.80;99.90;;;;;;5008457;28;20562;-68
2022/12/20 03:43:24;;;;;;;8.52;3.42;;;7.80;99.90;;;;;;5007933;28;20080;-68
2022/12/20 03:45:50;;;;;;;6.85;3.35;;;7.80;99.90;;;;;;5010492;28;20050;-66
2022/12/20 03:48:16;;;;;;;7.40;4.00;;;7.90;99.90;;;;;;5007058;28;20057;-66
2022/12/20 03:50:41;;;;;;;7.60;4.00;;;7.90;99.90;;;;;;5016819;28;20060;-67
2022/12/20 03:53:07;;;;;;;5.53;2.97;;;7.90;99.90;;;;;;5011517;28;20052;-67
2022/12/20 03:55:32;;;;;;;8.63;4.03;;;7.90;99.90;;;;;;5005165;28;20196;-66
2022/12/20 03:57:58;;;;;;;7.40;3.53;;;7.90;99.90;;;;;;5007873;28;20042;-66
2022/12/20 04:00:25;;;;;;;8.05;3.60;;;7.90;99.90;;;;;;5008827;28;20053;-66
2022/12/20 04:02:51;;;;;;;7.00;3.50;;;7.90;99.90;;;;;;5004291;28;20132;-65
2022/12/20 04:05:16;;;;;;;9.52;3.80;;;7.90;99.90;;;;;;4991156;28;20137;-66
2022/12/20 04:07:44;;;;;;;6.95;3.95;;;7.90;99.90;;;;;;5011358;28;20116;-68
2022/12/20 04:10:10;;;;;;;5.13;3.38;;;8.00;99.90;;;;;;5008906;28;20045;-66
2022/12/20 04:12:36;;;;;;;9.80;4.63;;;8.00;99.90;;;;;;5009007;28;20064;-67
2022/12/20 04:15:01;;;;;;;8.27;3.70;;;8.00;99.90;;;;;;5008444;28;20061;-67
2022/12/20 04:17:27;;;;;;;5.47;3.55;;;7.90;99.90;;;;;;5007829;28;20018;-67
2022/12/20 04:19:52;;;;;;;5.57;3.25;;;7.90;99.90;;;;;;5008741;28;20076;-67
2022/12/20 04:22:18;;;;;;;5.93;3.72;;;7.90;99.90;;;;;;5012378;28;20144;-67
2022/12/20 04:24:44;;;;;;;8.63;3.92;;;7.90;99.90;;;;;;5005562;28;20033;-68
2022/12/20 04:27:09;;;;;;;5.88;3.72;;;7.90;99.90;;;;;;5012845;28;20130;-68
2022/12/20 04:29:35;;;;;;;6.70;3.95;;;7.90;99.90;;;;;;5009004;28;20025;-67
2022/12/20 04:32:00;;;;;;;7.95;3.60;;;7.90;99.90;;;;;;5008957;28;20538;-66
2022/12/20 04:34:26;;;;;;;10.15;3.45;;;7.90;99.90;;;;;;5014643;28;20104;-67
2022/12/20 04:36:52;;;;;;;6.53;3.38;;;8.00;99.90;;;;;;5009951;28;20013;-65
2022/12/20 04:39:17;;;;;;;8.02;4.03;;;8.00;99.90;;;;;;5008305;28;20387;-68
2022/12/20 04:41:43;;;;;;;7.32;3.80;;;8.00;99.90;;;;;;5009734;28;20033;-67
2022/12/20 04:44:08;;;;;;;7.18;3.65;;;8.00;99.90;;;;;;5006752;28;20034;-66
2022/12/20 04:46:34;;;;;;;7.95;4.15;;;8.00;99.90;;;;;;5008849;28;20443;-67
2022/12/20 04:48:59;;;;;;;6.00;3.63;;;8.00;99.90;;;;;;5005512;28;20038;-66
2022/12/20 04:51:26;;;;;;;8.45;3.90;;;8.00;99.90;;;;;;5015308;28;20030;-67
2022/12/20 04:53:52;;;;;;;7.93;3.85;;;8.00;99.90;;;;;;5009456;28;20029;-66
2022/12/20 04:56:22;;;;;;;6.38;3.65;;;8.00;99.90;;;;;;5014017;28;20034;-67
2022/12/20 04:58:50;;;;;;;9.07;3.40;;;8.00;99.90;;;;;;5002315;28;20440;-67
2022/12/20 05:01:16;;;;;;;6.82;3.90;;;8.00;99.90;;;;;;5005476;28;20025;-66
2022/12/20 05:03:42;;;;;;;6.13;3.85;;;8.00;99.90;;;;;;5013391;28;20049;-66
2022/12/20 05:06:09;;;;;;;5.97;3.72;;;8.00;99.90;;;;;;4995271;28;20461;-65
2022/12/20 05:08:35;;;;;;;5.55;3.00;;;8.00;99.90;;;;;;5012735;28;20034;-66
2022/12/20 05:11:01;;;;;;;10.80;4.57;;;8.00;99.90;;;;;;5011193;28;20076;-67
2022/12/20 05:13:27;;;;;;;8.07;3.95;;;8.00;99.90;;;;;;5010251;28;20028;-66
2022/12/20 05:15:55;;;;;;;8.82;3.78;;;8.10;99.90;;;;;;5012017;28;20029;-68
2022/12/20 05:18:21;;;;;;;10.88;3.45;;;8.00;99.90;;;;;;5011610;28;20030;-67
2022/12/20 05:20:46;;;;;;;4.88;2.72;;;8.00;99.90;;;;;;5011425;28;20115;-67
2022/12/20 05:28:41;;;;;;;14.40;4.68;;;7.90;99.90;;;;;;5009202;28;20510;-66
2022/12/20 05:31:07;;;;;;;13.63;3.75;;;7.90;99.90;;;;;;5020386;28;20029;-68
2022/12/20 05:33:33;;;;;;;7.90;4.63;;;8.00;99.90;;;;;;5010721;28;20104;-68
2022/12/20 05:35:58;;;;;;;6.93;3.88;;;8.00;99.90;;;;;;5018930;28;20037;-67
2022/12/20 05:38:24;;;;;;;10.30;4.22;;;8.00;99.90;;;;;;5007525;28;20030;-67
2022/12/20 05:40:50;;;;;;;8.80;3.70;;;8.00;99.90;;;;;;5009323;28;20628;-67
2022/12/20 05:43:17;;;;;;;4.47;3.08;;;8.00;99.90;;;;;;5009186;28;20125;-67
2022/12/20 05:45:51;;;;;;;7.30;4.07;;;8.00;99.90;;;;;;5011217;28;20030;-66
2022/12/20 05:48:19;;;;;;;9.02;4.00;;;8.00;99.90;;;;;;5017066;28;20033;-67
2022/12/20 05:50:44;;;;;;;7.18;4.30;;;7.90;99.90;;;;;;5020252;28;20030;-67
2022/12/20 05:53:12;;;;;;;7.10;4.30;;;8.00;99.90;;;;;;5012877;28;20048;-67
2022/12/20 05:55:39;;;;;;;5.57;3.53;;;7.90;99.90;;;;;;5012127;28;20064;-68
2022/12/20 05:58:06;;;;;;;9.55;3.72;;;7.90;99.90;;;;;;5015189;28;20088;-66
2022/12/20 06:00:31;;;;;;;10.30;4.10;;;7.90;99.90;;;;;;5009091;28;20434;-66
2022/12/20 06:02:57;;;;;;;6.90;4.32;;;7.90;99.90;;;;;;5011382;28;20022;-68
2022/12/20 06:05:22;;;;;;;7.72;3.72;;;8.00;99.90;;;;;;4995784;28;20038;-68
2022/12/20 06:07:48;;;;;;;10.52;4.00;;;8.00;99.90;;;;;;5010891;28;20033;-67
2022/12/20 06:10:13;;;;;;;6.45;3.63;;;8.10;99.90;;;;;;5005452;28;20436;-66
2022/12/20 06:12:39;;;;;;;10.02;4.03;;;8.10;99.90;;;;;;5008324;28;20069;-67
2022/12/20 06:15:05;;;;;;;7.20;3.88;;;8.00;99.90;;;;;;5012004;28;20539;-67
2022/12/20 06:17:30;;;;;;;10.45;3.95;;;8.10;99.90;;;;;;5010839;28;20025;-68
2022/12/20 06:19:56;;;;;;;7.85;3.42;;;8.00;99.90;;;;;;5010765;28;20038;-65
2022/12/20 06:22:21;;;;;;;6.80;3.38;;;8.10;99.90;;;;;;5014813;28;20096;-67
2022/12/20 06:24:47;;;;;;;6.95;3.20;;;8.20;99.90;;;;;;5017611;28;20042;-67
2022/12/20 06:27:13;;;;;;;9.70;4.50;;;8.10;99.90;;;;;;5008916;28;20030;-67
2022/12/20 06:29:38;;;;;;;9.23;3.40;;;8.10;99.90;;;;;;5013854;28;20886;-67
2022/12/20 06:32:04;;;;;;;11.15;4.95;;;8.10;99.90;;;;;;5017358;28;20026;-67
2022/12/20 06:34:31;;;;;;;7.32;3.67;;;8.10;99.90;;;;;;5016857;28;20483;-68
2022/12/20 06:36:56;;;;;;;9.95;3.50;;;8.20;99.90;;;;;;5017712;28;20060;-66
2022/12/20 06:39:22;;;;;;;6.22;4.15;;;8.10;99.90;;;;;;5014827;28;20022;-67
2022/12/20 06:41:48;;;;;;;6.57;3.60;;;8.20;99.90;;;;;;5015346;28;20110;-68
2022/12/20 06:44:13;;;;;;;10.05;4.10;;;8.20;99.90;;;;;;5014214;28;20048;-66
2022/12/20 06:46:39;;;;;;;9.90;4.03;;;8.20;99.90;;;;;;5014921;28;20404;-67
2022/12/20 06:49:04;;;;;;;7.60;3.90;;;8.20;99.90;;;;;;5013771;28;20076;-68
2022/12/20 06:51:30;;;;;;;5.60;3.22;;;8.30;99.90;;;;;;5015611;28;20061;-67
2022/12/20 06:53:55;;;;;;;6.25;3.00;;;8.30;99.90;;;;;;5008338;28;20034;-65
2022/12/20 06:56:21;;;;;;;7.53;3.80;;;8.30;99.90;;;;;;5011263;28;20075;-66
2022/12/20 06:58:46;;;;;;;8.30;3.10;;;8.20;99.90;;;;;;5009637;28;20033;-69
2022/12/20 07:01:12;;;;;;;7.18;4.07;;;8.20;99.90;;;;;;5010297;28;20924;-66
2022/12/20 07:03:39;;;;;;;9.57;4.22;;;8.20;99.90;;;;;;5002900;28;20502;-66
2022/12/20 07:06:04;;;;;;;7.95;4.18;;;8.20;99.90;;;;;;5011962;28;20025;-67
2022/12/20 07:08:30;;;;;;;8.70;4.03;;;8.20;99.90;;;;;;5010842;28;20033;-66
2022/12/20 07:11:01;;;;;;;8.52;3.70;;;8.20;99.90;;;;;;5010616;28;20030;-68
2022/12/20 07:13:27;;;;;;;8.27;3.42;;;8.20;99.90;;;;;;5009361;28;20022;-67
2022/12/20 07:15:58;;;;;;;6.78;3.60;;;8.20;99.90;;;;;;5010825;28;20041;-67
2022/12/20 07:18:24;;;;;;;10.95;3.67;;;8.20;99.90;;;;;;5007053;28;20018;-68
2022/12/20 07:20:49;;;;;;;6.85;3.38;;;8.20;99.90;;;;;;5009166;28;20172;-66
2022/12/20 07:23:15;;;;;;;6.90;3.97;;;8.20;99.90;;;;;;5009405;28;20057;-66
2022/12/20 07:25:40;;;;;;;5.15;3.20;;;8.20;99.90;;;;;;5010727;28;20026;-66
2022/12/20 07:28:06;;;;;;;9.50;3.78;;;8.20;99.90;;;;;;5007371;28;20491;-68
2022/12/20 07:30:31;;;;;;;6.10;3.50;;;8.20;99.90;;;;;;5004580;28;20111;-66
2022/12/20 07:32:57;;;;;;;7.47;4.13;;;8.10;99.90;;;;;;5009134;28;20034;-67
2022/12/20 07:35:23;;;;;;;6.93;3.85;;;8.10;99.90;;;;;;5008161;28;20109;-67
2022/12/20 07:37:48;;;;;;;7.88;3.30;;;8.00;99.90;;;;;;5009147;28;20387;-66
2022/12/20 07:40:15;;;;;;;9.50;3.90;;;8.00;99.90;;;;;;5007615;28;20104;-67
2022/12/20 07:42:40;;;;;;;5.30;3.10;;;8.00;99.90;;;;;;5010175;28;20064;-66
2022/12/20 07:45:07;;;;;;;9.07;3.85;;;8.00;99.90;;;;;;5008907;28;20037;-67
2022/12/20 07:47:34;;;;;;;7.72;3.42;;;7.90;99.90;;;;;;5012427;28;20037;-67
2022/12/20 07:50:01;;;;;;;8.00;3.28;;;8.00;99.90;;;;;;5011939;28;20061;-67
2022/12/20 07:52:28;;;;;;;8.45;3.15;;;8.10;99.90;;;;;;5010080;28;20076;-68
2022/12/20 07:55:00;;;;;;;11.18;3.60;;;8.10;99.90;;;;;;5005359;28;20112;-68
2022/12/20 07:57:51;;;;;;;5.28;2.90;;;8.10;99.90;;;;;;5010631;28;20022;-66
2022/12/20 08:00:20;;;;;;;6.93;3.97;;;8.20;99.90;;;;;;5006806;28;20030;-68
2022/12/20 08:02:56;;;;;;;6.55;3.50;;;8.30;99.90;;;;;;5020316;28;20034;-67
2022/12/20 08:05:23;;;;;;;7.97;3.45;;;8.30;99.90;;;;;;5007884;28;20104;-68
2022/12/20 08:07:49;;;;;;;6.10;3.47;;;8.30;99.90;;;;;;5010439;28;20025;-67
2022/12/20 08:10:18;;;;;;;7.32;3.50;;;8.40;99.90;;;;;;5005026;28;20030;-67
2022/12/20 08:12:46;;;;;;;7.03;3.22;;;8.40;99.90;;;;;;5007847;28;20030;-66
2022/12/20 08:15:12;;;;;;;10.80;4.18;;;8.50;99.90;;;;;;5009299;28;20057;-66
2022/12/20 08:17:38;;;;;;;8.18;3.97;;;8.50;99.90;;;;;;5004819;28;20030;-67
2022/12/20 08:20:05;;;;;;;12.80;4.05;;;8.40;99.90;;;;;;5005435;28;20131;-67
2022/12/20 08:22:31;;;;;;;16.60;3.75;;;8.40;99.90;;;;;;5006567;28;20026;-67
2022/12/20 08:24:56;;;;;;;9.85;4.00;;;8.40;99.90;;;;;;4968238;28;20038;-67
2022/12/20 08:27:22;;;;;;;8.38;4.18;;;8.40;99.90;;;;;;5012183;28;20053;-65
2022/12/20 08:29:48;;;;;;;7.63;4.00;;;8.40;99.90;;;;;;5007840;28;20397;-68
2022/12/20 08:32:14;;;;;;;7.63;3.63;;;8.40;99.90;;;;;;5009822;28;20037;-68
2022/12/20 08:34:41;;;;;;;9.15;3.70;;;8.40;99.90;;;;;;5006780;28;20030;-67
2022/12/20 08:37:06;;;;;;;5.57;3.60;;;8.40;99.90;;;;;;5009724;28;20397;-66
2022/12/20 08:39:32;;;;;;;4.60;3.35;;;8.50;99.90;;;;;;5007983;28;20034;-67
2022/12/20 08:41:58;;;;;;;5.65;2.65;;;8.50;99.90;;;;;;5009379;28;20408;-62
2022/12/20 08:44:24;;;;;;;6.00;3.30;;;8.60;99.90;;;;;;5006257;28;20033;-67
2022/12/20 08:46:49;;;;;;;8.48;3.65;;;8.60;99.90;;;;;;5009399;28;20033;-68
2022/12/20 08:49:15;;;;;;;8.38;3.40;;;8.70;99.90;;;;;;5008790;28;20404;-67
2022/12/20 08:51:41;;;;;;;5.63;3.40;;;8.70;99.90;;;;;;5007407;28;20030;-67
2022/12/20 08:54:07;;;;;;;6.95;2.80;;;8.70;99.90;;;;;;5008389;28;20033;-69
2022/12/20 08:56:33;;;;;;;4.68;2.97;;;8.70;99.90;;;;;;5007234;28;20034;-66
2022/12/20 08:58:58;;;;;;;6.00;3.30;;;8.70;99.90;;;;;;4997670;28;20037;-67
2022/12/20 09:01:25;;;;;;;5.80;2.42;;;8.70;99.90;;;;;;5008595;28;20442;-67
2022/12/20 09:03:51;;;;;;;8.85;3.33;;;8.70;99.90;;;;;;5014745;28;20041;-70
2022/12/20 09:06:19;;;;;;;12.20;5.32;;;8.70;99.90;;;;;;5017855;28;20030;-68
2022/12/20 09:08:46;;;;;;;18.42;9.35;;;8.70;99.90;;;;;;5018761;28;20036;-68
2022/12/20 09:11:21;;;;;;;28.85;14.60;;;8.60;99.90;;;;;;5020264;28;20491;-67
2022/12/20 09:13:49;;;;;;;12.93;5.97;;;8.60;99.90;;;;;;5011660;28;20026;-67
2022/12/20 09:16:17;;;;;;;12.48;5.50;;;8.60;99.90;;;;;;5010404;28;20049;-67
2022/12/20 09:18:46;;;;;;;12.98;6.10;;;8.70;99.90;;;;;;5008422;28;20391;-67
2022/12/20 09:21:12;;;;;;;20.95;11.73;;;8.70;99.90;;;;;;5009144;28;20514;-68
2022/12/20 09:23:38;;;;;;;12.20;6.22;;;8.60;99.90;;;;;;5015480;28;20030;-66
2022/12/20 09:26:09;;;;;;;9.02;4.90;;;8.60;99.90;;;;;;5016939;28;20099;-66
2022/12/20 09:28:34;;;;;;;6.93;4.00;;;8.60;99.90;;;;;;5015314;28;20030;-68
2022/12/20 09:31:01;;;;;;;7.20;3.88;;;8.60;99.90;;;;;;5019785;28;20037;-66
2022/12/20 09:33:29;;;;;;;4.63;2.97;;;8.60;99.90;;;;;;5012734;28;20057;-66
2022/12/20 09:35:55;;;;;;;4.15;2.80;;;8.70;99.90;;;;;;5017823;28;20025;-67
2022/12/20 09:38:21;;;;;;;4.78;2.85;;;8.70;99.90;;;;;;5024208;28;20372;-67
2022/12/20 09:40:50;;;;;;;9.90;5.35;;;8.70;99.90;;;;;;5018798;28;20034;-67
2022/12/20 09:43:16;;;;;;;4.80;2.83;;;8.70;99.90;;;;;;5011663;28;20037;-68
2022/12/20 09:45:46;;;;;;;4.60;2.97;;;8.80;99.90;;;;;;5013606;28;20040;-68
2022/12/20 09:48:38;;;;;;;5.63;2.70;;;8.80;99.90;;;;;;5006825;28;20117;-68
2022/12/20 09:51:34;;;;;;;4.25;2.55;;;8.80;99.90;;;;;;5014860;28;20037;-68
2022/12/20 09:54:15;;;;;;;7.57;3.53;;;8.90;99.90;;;;;;5011514;28;20030;-66
2022/12/20 09:56:50;;;;;;;5.95;3.20;;;8.90;99.90;;;;;;5015885;28;20126;-66
2022/12/20 09:59:19;;;;;;;5.15;3.00;;;8.90;99.90;;;;;;5011647;28;20073;-67
2022/12/20 10:01:47;;;;;;;4.30;2.50;;;8.90;99.90;;;;;;5012218;28;20495;-67
2022/12/20 10:04:28;;;;;;;4.60;2.97;;;8.90;99.90;;;;;;5009629;28;20060;-66
2022/12/20 10:07:05;;;;;;;4.28;2.97;;;9.00;99.90;;;;;;5007399;28;20040;-67
2022/12/20 10:10:01;;;;;;;6.72;3.08;;;9.00;99.90;;;;;;5013134;28;20434;-65
2022/12/20 10:12:46;;;;;;;7.03;3.55;;;9.00;99.90;;;;;;5008886;28;20026;-67
2022/12/20 10:15:40;;;;;;;4.65;2.90;;;9.00;99.90;;;;;;5012900;28;20022;-67
2022/12/20 10:18:29;;;;;;;8.10;3.05;;;9.00;99.90;;;;;;5005372;28;20099;-66
2022/12/20 10:20:59;;;;;;;6.32;3.00;;;9.10;99.90;;;;;;5006896;28;20036;-67
2022/12/20 10:23:43;;;;;;;6.30;3.60;;;9.10;99.90;;;;;;5014762;28;20034;-68
2022/12/20 10:26:11;;;;;;;8.45;3.05;;;9.10;99.90;;;;;;5008515;28;20080;-66
2022/12/20 10:28:38;;;;;;;6.55;3.20;;;9.10;99.90;;;;;;5010046;28;20026;-65
2022/12/20 10:31:12;;;;;;;8.20;3.33;;;9.20;99.90;;;;;;5018030;28;20029;-67
2022/12/20 10:33:38;;;;;;;5.40;2.97;;;9.10;99.90;;;;;;5010157;28;20030;-66
2022/12/20 10:36:25;;;;;;;8.50;2.92;;;9.10;99.90;;;;;;5019758;28;20029;-67
2022/12/20 10:38:54;;;;;;;5.97;3.67;;;9.00;99.90;;;;;;5000972;28;21821;-67
2022/12/20 10:41:26;;;;;;;5.72;4.05;;;9.00;99.90;;;;;;5015896;28;20038;-66
2022/12/20 10:44:00;;;;;;;6.82;4.53;;;8.90;99.90;;;;;;5010591;28;20118;-67
2022/12/20 10:47:03;;;;;;;7.47;3.70;;;9.00;99.90;;;;;;5014196;28;20029;-66
2022/12/20 10:49:31;;;;;;;6.18;3.58;;;9.00;99.90;;;;;;5009764;28;20462;-68
2022/12/20 10:52:09;;;;;;;7.85;3.63;;;9.00;99.90;;;;;;5009868;28;20049;-66
2022/12/20 10:54:39;;;;;;;9.07;4.13;;;9.00;99.90;;;;;;5011929;28;20084;-67
2022/12/20 10:57:23;;;;;;;11.20;5.38;;;8.90;99.90;;;;;;5011428;28;20030;-65
2022/12/20 10:59:55;;;;;;;8.10;4.70;;;8.90;99.90;;;;;;5009434;28;20041;-66
2022/12/20 11:02:30;;;;;;;7.10;4.65;;;8.90;99.90;;;;;;5010796;28;20037;-66
2022/12/20 11:05:01;;;;;;;8.82;4.55;;;8.90;99.90;;;;;;4999271;28;20101;-66
2022/12/20 11:07:30;;;;;;;14.98;4.45;;;9.00;99.90;;;;;;4998850;28;20063;-64
2022/12/20 11:09:59;;;;;;;7.43;4.25;;;9.00;99.90;;;;;;5002425;28;20131;-65
2022/12/20 11:12:25;;;;;;;6.75;4.68;;;9.00;99.90;;;;;;5008641;28;20018;-65
2022/12/20 11:15:11;;;;;;;7.35;3.70;;;9.10;99.90;;;;;;5007977;28;20160;-64
2022/12/20 11:17:42;;;;;;;6.05;3.63;;;9.10;99.90;;;;;;5005808;28;20065;-65
2022/12/20 11:20:35;;;;;;;6.35;3.85;;;9.10;99.90;;;;;;5003111;28;20026;-65
2022/12/20 11:23:40;;;;;;;6.80;3.20;;;9.00;99.90;;;;;;5010855;28;20026;-66
2022/12/20 11:26:21;;;;;;;7.53;3.70;;;9.10;99.90;;;;;;5006733;28;20022;-65
2022/12/20 11:29:20;;;;;;;11.63;3.92;;;9.10;99.90;;;;;;5012877;28;20022;-65
2022/12/20 11:32:00;;;;;;;6.97;4.00;;;9.10;99.90;;;;;;5018218;28;20087;-66
2022/12/20 11:35:00;;;;;;;13.52;5.97;;;9.20;99.90;;;;;;5012592;28;20100;-65
2022/12/20 11:37:29;;;;;;;9.15;5.05;;;9.10;99.90;;;;;;5010516;28;20079;-65
2022/12/20 11:39:55;;;;;;;8.90;5.25;;;9.20;99.90;;;;;;5011209;28;20056;-65
2022/12/20 11:42:52;;;;;;;7.00;4.85;;;9.20;99.90;;;;;;5005463;28;20034;-66
2022/12/20 11:46:09;;;;;;;7.43;4.68;;;9.10;99.90;;;;;;5006589;28;20494;-66
2022/12/20 11:48:40;;;;;;;14.75;6.32;;;9.10;99.90;;;;;;4999390;28;20133;-65
2022/12/20 11:51:40;;;;;;;13.70;7.95;;;9.10;99.90;;;;;;5012210;28;20530;-66
2022/12/20 11:54:13;;;;;;;36.20;16.63;;;9.00;99.90;;;;;;5005578;28;20030;-66
2022/12/20 11:56:46;;;;;;;44.15;18.05;;;9.00;99.90;;;;;;5010746;28;20115;-66
2022/12/20 11:59:17;;;;;;;23.67;12.10;;;9.00;99.90;;;;;;5006780;28;20037;-66
2022/12/20 12:01:49;;;;;;;19.80;10.85;;;9.00;99.90;;;;;;5003281;28;20450;-65
2022/12/20 12:04:17;;;;;;;13.73;7.85;;;9.10;99.90;;;;;;5004811;28;20029;-66
2022/12/20 12:06:55;;;;;;;18.77;8.93;;;9.10;99.90;;;;;;4987542;28;20128;-66
2022/12/20 12:09:36;;;;;;;15.70;8.07;;;9.10;99.90;;;;;;5005412;28;20043;-67
2022/12/20 12:12:24;;;;;;;9.63;5.75;;;9.20;99.90;;;;;;5005042;28;20578;-66
2022/12/20 12:15:15;;;;;;;11.02;5.18;;;9.20;99.90;;;;;;5008082;28;20030;-67
2022/12/20 12:18:04;;;;;;;23.98;9.77;;;9.30;99.90;;;;;;4988556;28;20038;-66
2022/12/20 12:20:54;;;;;;;48.90;18.48;;;9.30;99.90;;;;;;5005018;28;20450;-65
2022/12/20 12:23:36;;;;;;;35.45;14.10;;;9.30;99.90;;;;;;5011011;28;20061;-67
2022/12/20 12:26:09;;;;;;;47.25;18.13;;;9.30;99.90;;;;;;5009675;28;20030;-66
2022/12/20 12:28:35;;;;;;;48.15;21.30;;;9.30;99.90;;;;;;5010725;28;20096;-66
2022/12/20 12:31:10;;;;;;;49.42;24.27;;;9.30;99.90;;;;;;5016468;28;20037;-65
2022/12/20 12:34:02;;;;;;;59.33;26.20;;;9.30;99.90;;;;;;5005325;28;20025;-66
2022/12/20 12:36:36;;;;;;;48.08;23.60;;;9.30;99.90;;;;;;5014346;28;20033;-66
2022/12/20 12:39:20;;;;;;;;;;;9.30;99.90;;;;;;5006013;28;20056;-66
2022/12/20 12:42:04;;;;;;;22.00;8.50;;;9.30;99.90;;;;;;5008082;28;20393;-65
2022/12/20 12:44:45;;;;;;;10.88;6.45;;;9.30;99.90;;;;;;5006805;28;20510;-64
2022/12/20 12:47:46;;;;;;;13.52;6.35;;;9.40;99.90;;;;;;5009619;28;20044;-67
2022/12/20 12:50:37;;;;;;;9.25;5.88;;;9.50;99.90;;;;;;4996403;28;20128;-66
2022/12/20 12:53:21;;;;;;;9.00;4.50;;;9.50;99.90;;;;;;5013130;28;20461;-65
2022/12/20 12:55:52;;;;;;;7.13;3.45;;;9.50;99.90;;;;;;5009728;28;20026;-66
2022/12/20 12:58:23;;;;;;;9.25;4.85;;;9.50;99.90;;;;;;5009754;28;20056;-67
2022/12/20 13:00:57;;;;;;;11.77;5.22;;;9.50;99.90;;;;;;5011393;28;20076;-66
2022/12/20 13:03:50;;;;;;;16.02;8.40;;;9.50;99.90;;;;;;5010667;28;20061;-68
2022/12/20 13:06:22;;;;;;;18.10;9.63;;;9.40;99.90;;;;;;4995985;28;20304;-67
2022/12/20 13:09:34;;;;;;;31.67;15.50;;;9.40;99.90;;;;;;5000090;28;20392;-66
2022/12/20 13:12:37;;;;;;;40.40;20.20;;;9.40;99.90;;;;;;4998110;28;20450;-65
2022/12/20 13:15:18;;;;;;;51.15;24.05;;;9.30;99.90;;;;;;4995152;28;20030;-65
2022/12/20 13:17:54;;;;;;;51.90;22.30;;;9.30;99.90;;;;;;5005421;28;20022;-67
2022/12/20 13:20:24;;;;;;;42.03;20.55;;;9.20;99.90;;;;;;5009964;28;20018;-67
2022/12/20 13:23:07;;;;;;;40.85;20.10;;;9.20;99.90;;;;;;5015855;28;20026;-67